sensor_id;sensor_type;location;lat;lon;timestamp;P1;durP1;ratioP1;P2;durP2;ratioP2
3712;SDS011;1872;51.406;6.856;2023-02-18T00:00:06;21.30;;;15.67;;
3712;SDS011;1872;51.406;6.856;2023-02-18T00:02:34;19.67;;;14.90;;
3712;SDS011;1872;51.406;6.856;2023-02-18T00:04:59;21.43;;;14.77;;
3712;SDS011;1872;51.406;6.856;2023-02-18T00:07:25;20.53;;;14.37;;
3712;SDS011;1872;51.406;6.856;2023-02-18T00:09:51;22.30;;;14.87;;
3712;SDS011;1872;51.406;6.856;2023-02-18T00:12:16;23.40;;;14.93;;
3712;SDS011;1872;51.406;6.856;2023-02-18T00:14:42;21.33;;;15.80;;
3712;SDS011;1872;51.406;6.856;2023-02-18T00:17:08;21.80;;;15.00;;
3712;SDS011;1872;51.406;6.856;2023-02-18T00:19:33;19.53;;;14.77;;
3712;SDS011;1872;51.406;6.856;2023-02-18T00:21:59;20.10;;;14.67;;
3712;SDS011;1872;51.406;6.856;2023-02-18T00:24:25;21.17;;;14.53;;
3712;SDS011;1872;51.406;6.856;2023-02-18T00:26:51;22.43;;;14.70;;
3712;SDS011;1872;51.406;6.856;2023-02-18T00:29:17;19.73;;;14.47;;
3712;SDS011;1872;51.406;6.856;2023-02-18T00:31:44;24.07;;;15.60;;
3712;SDS011;1872;51.406;6.856;2023-02-18T00:34:10;23.67;;;16.30;;
3712;SDS011;1872;51.406;6.856;2023-02-18T00:36:36;24.60;;;16.40;;
3712;SDS011;1872;51.406;6.856;2023-02-18T00:39:03;18.37;;;12.43;;
3712;SDS011;1872;51.406;6.856;2023-02-18T00:41:33;24.77;;;15.67;;
3712;SDS011;1872;51.406;6.856;2023-02-18T00:44:00;21.70;;;15.57;;
3712;SDS011;1872;51.406;6.856;2023-02-18T00:46:26;23.47;;;15.60;;
3712;SDS011;1872;51.406;6.856;2023-02-18T00:48:52;21.50;;;15.37;;
3712;SDS011;1872;51.406;6.856;2023-02-18T00:51:18;17.77;;;13.23;;
3712;SDS011;1872;51.406;6.856;2023-02-18T00:53:45;21.07;;;15.50;;
3712;SDS011;1872;51.406;6.856;2023-02-18T00:56:10;24.33;;;16.80;;
3712;SDS011;1872;51.406;6.856;2023-02-18T00:58:37;24.50;;;16.23;;
3712;SDS011;1872;51.406;6.856;2023-02-18T01:01:06;22.70;;;15.97;;
3712;SDS011;1872;51.406;6.856;2023-02-18T01:03:32;24.37;;;15.90;;
3712;SDS011;1872;51.406;6.856;2023-02-18T01:05:59;23.13;;;16.30;;
3712;SDS011;1872;51.406;6.856;2023-02-18T01:08:24;21.60;;;15.00;;
3712;SDS011;1872;51.406;6.856;2023-02-18T01:10:52;21.33;;;14.57;;
3712;SDS011;1872;51.406;6.856;2023-02-18T01:13:19;22.47;;;16.47;;
3712;SDS011;1872;51.406;6.856;2023-02-18T01:15:45;25.20;;;16.50;;
3712;SDS011;1872;51.406;6.856;2023-02-18T01:18:11;24.40;;;13.93;;
3712;SDS011;1872;51.406;6.856;2023-02-18T01:20:38;19.27;;;11.93;;
3712;SDS011;1872;51.406;6.856;2023-02-18T01:23:05;21.83;;;13.37;;
3712;SDS011;1872;51.406;6.856;2023-02-18T01:25:32;20.23;;;14.00;;
3712;SDS011;1872;51.406;6.856;2023-02-18T01:27:58;19.43;;;13.20;;
3712;SDS011;1872;51.406;6.856;2023-02-18T01:30:24;20.43;;;14.27;;
3712;SDS011;1872;51.406;6.856;2023-02-18T01:32:50;21.67;;;13.87;;
3712;SDS011;1872;51.406;6.856;2023-02-18T01:35:17;19.67;;;14.80;;
3712;SDS011;1872;51.406;6.856;2023-02-18T01:37:44;20.20;;;12.63;;
3712;SDS011;1872;51.406;6.856;2023-02-18T01:40:11;19.17;;;12.40;;
3712;SDS011;1872;51.406;6.856;2023-02-18T01:42:40;18.67;;;12.17;;
3712;SDS011;1872;51.406;6.856;2023-02-18T01:47:53;17.70;;;12.70;;
3712;SDS011;1872;51.406;6.856;2023-02-18T01:50:19;18.97;;;12.13;;
3712;SDS011;1872;51.406;6.856;2023-02-18T01:52:45;16.73;;;12.00;;
3712;SDS011;1872;51.406;6.856;2023-02-18T01:55:10;20.93;;;11.97;;
3712;SDS011;1872;51.406;6.856;2023-02-18T01:57:36;17.70;;;12.00;;
3712;SDS011;1872;51.406;6.856;2023-02-18T02:00:05;17.70;;;11.47;;
3712;SDS011;1872;51.406;6.856;2023-02-18T02:02:36;15.77;;;11.80;;
3712;SDS011;1872;51.406;6.856;2023-02-18T02:05:06;16.43;;;11.47;;
3712;SDS011;1872;51.406;6.856;2023-02-18T02:07:31;13.57;;;10.63;;
3712;SDS011;1872;51.406;6.856;2023-02-18T02:09:57;20.83;;;11.47;;
3712;SDS011;1872;51.406;6.856;2023-02-18T02:12:32;14.33;;;9.57;;
3712;SDS011;1872;51.406;6.856;2023-02-18T02:39:55;12.10;;;8.80;;
3712;SDS011;1872;51.406;6.856;2023-02-18T02:45:41;14.40;;;10.37;;
3712;SDS011;1872;51.406;6.856;2023-02-18T02:48:28;11.30;;;7.93;;
3712;SDS011;1872;51.406;6.856;2023-02-18T02:51:08;9.57;;;6.97;;
3712;SDS011;1872;51.406;6.856;2023-02-18T02:53:39;11.63;;;7.63;;
3712;SDS011;1872;51.406;6.856;2023-02-18T02:56:15;10.73;;;7.33;;
3712;SDS011;1872;51.406;6.856;2023-02-18T02:58:48;10.73;;;7.23;;
3712;SDS011;1872;51.406;6.856;2023-02-18T03:09:45;11.17;;;7.43;;
3712;SDS011;1872;51.406;6.856;2023-02-18T03:12:24;10.70;;;7.13;;
3712;SDS011;1872;51.406;6.856;2023-02-18T03:18:06;11.37;;;8.17;;
3712;SDS011;1872;51.406;6.856;2023-02-18T03:21:26;14.70;;;9.33;;
3712;SDS011;1872;51.406;6.856;2023-02-18T03:23:37;10.90;;;7.03;;
3712;SDS011;1872;51.406;6.856;2023-02-18T03:26:33;11.80;;;8.13;;
3712;SDS011;1872;51.406;6.856;2023-02-18T03:29:04;13.33;;;8.90;;
3712;SDS011;1872;51.406;6.856;2023-02-18T03:31:34;14.80;;;8.63;;
3712;SDS011;1872;51.406;6.856;2023-02-18T03:34:14;12.67;;;7.90;;
3712;SDS011;1872;51.406;6.856;2023-02-18T03:36:43;13.77;;;7.77;;
3712;SDS011;1872;51.406;6.856;2023-02-18T03:39:10;17.30;;;8.70;;
3712;SDS011;1872;51.406;6.856;2023-02-18T03:41:40;13.60;;;8.90;;
3712;SDS011;1872;51.406;6.856;2023-02-18T03:44:07;12.83;;;8.13;;
3712;SDS011;1872;51.406;6.856;2023-02-18T03:46:34;14.67;;;8.27;;
3712;SDS011;1872;51.406;6.856;2023-02-18T03:49:02;12.53;;;8.40;;
3712;SDS011;1872;51.406;6.856;2023-02-18T03:51:28;13.47;;;8.27;;
3712;SDS011;1872;51.406;6.856;2023-02-18T03:53:55;21.00;;;11.10;;
3712;SDS011;1872;51.406;6.856;2023-02-18T03:56:23;17.77;;;9.80;;
3712;SDS011;1872;51.406;6.856;2023-02-18T03:58:49;17.80;;;9.83;;
3712;SDS011;1872;51.406;6.856;2023-02-18T04:01:14;11.87;;;8.20;;
3712;SDS011;1872;51.406;6.856;2023-02-18T04:03:40;15.17;;;9.10;;
3712;SDS011;1872;51.406;6.856;2023-02-18T04:06:06;16.03;;;10.20;;
3712;SDS011;1872;51.406;6.856;2023-02-18T04:08:32;14.67;;;8.90;;
3712;SDS011;1872;51.406;6.856;2023-02-18T04:10:58;14.27;;;9.27;;
3712;SDS011;1872;51.406;6.856;2023-02-18T04:13:23;14.70;;;9.43;;
3712;SDS011;1872;51.406;6.856;2023-02-18T04:15:49;14.63;;;9.53;;
3712;SDS011;1872;51.406;6.856;2023-02-18T04:18:15;13.60;;;8.97;;
3712;SDS011;1872;51.406;6.856;2023-02-18T04:20:42;13.30;;;9.00;;
3712;SDS011;1872;51.406;6.856;2023-02-18T04:23:07;12.53;;;8.60;;
3712;SDS011;1872;51.406;6.856;2023-02-18T04:25:33;13.47;;;8.40;;
3712;SDS011;1872;51.406;6.856;2023-02-18T04:27:59;14.03;;;7.57;;
3712;SDS011;1872;51.406;6.856;2023-02-18T04:30:25;13.77;;;8.17;;
3712;SDS011;1872;51.406;6.856;2023-02-18T04:32:51;12.67;;;8.10;;
3712;SDS011;1872;51.406;6.856;2023-02-18T04:35:17;13.17;;;7.73;;
3712;SDS011;1872;51.406;6.856;2023-02-18T04:37:42;11.10;;;7.10;;
3712;SDS011;1872;51.406;6.856;2023-02-18T04:40:08;9.13;;;6.57;;
3712;SDS011;1872;51.406;6.856;2023-02-18T04:42:34;13.50;;;6.43;;
3712;SDS011;1872;51.406;6.856;2023-02-18T04:45:00;7.17;;;5.30;;
3712;SDS011;1872;51.406;6.856;2023-02-18T04:47:26;8.43;;;5.80;;
3712;SDS011;1872;51.406;6.856;2023-02-18T04:49:52;6.30;;;4.60;;
3712;SDS011;1872;51.406;6.856;2023-02-18T04:52:18;6.80;;;4.47;;
3712;SDS011;1872;51.406;6.856;2023-02-18T04:54:43;5.70;;;3.87;;
3712;SDS011;1872;51.406;6.856;2023-02-18T04:57:09;5.67;;;3.80;;
3712;SDS011;1872;51.406;6.856;2023-02-18T04:59:36;6.73;;;4.00;;
3712;SDS011;1872;51.406;6.856;2023-02-18T05:02:02;4.70;;;3.33;;
3712;SDS011;1872;51.406;6.856;2023-02-18T05:04:28;4.53;;;3.40;;
3712;SDS011;1872;51.406;6.856;2023-02-18T05:06:53;4.83;;;3.70;;
3712;SDS011;1872;51.406;6.856;2023-02-18T05:09:19;3.20;;;2.90;;
3712;SDS011;1872;51.406;6.856;2023-02-18T05:11:47;4.20;;;3.47;;
3712;SDS011;1872;51.406;6.856;2023-02-18T05:14:13;3.23;;;2.90;;
3712;SDS011;1872;51.406;6.856;2023-02-18T05:16:39;3.10;;;2.80;;
3712;SDS011;1872;51.406;6.856;2023-02-18T05:19:05;3.00;;;2.57;;
3712;SDS011;1872;51.406;6.856;2023-02-18T05:21:30;3.77;;;2.83;;
3712;SDS011;1872;51.406;6.856;2023-02-18T05:23:56;2.87;;;2.20;;
3712;SDS011;1872;51.406;6.856;2023-02-18T05:26:22;3.70;;;2.60;;
3712;SDS011;1872;51.406;6.856;2023-02-18T05:28:48;2.80;;;2.57;;
3712;SDS011;1872;51.406;6.856;2023-02-18T05:31:14;2.70;;;2.50;;
3712;SDS011;1872;51.406;6.856;2023-02-18T05:33:39;2.73;;;2.53;;
3712;SDS011;1872;51.406;6.856;2023-02-18T05:36:05;2.10;;;2.00;;
3712;SDS011;1872;51.406;6.856;2023-02-18T05:38:31;2.80;;;2.53;;
3712;SDS011;1872;51.406;6.856;2023-02-18T05:40:56;3.13;;;2.80;;
3712;SDS011;1872;51.406;6.856;2023-02-18T05:43:22;3.70;;;2.57;;
3712;SDS011;1872;51.406;6.856;2023-02-18T05:45:48;2.80;;;2.60;;
3712;SDS011;1872;51.406;6.856;2023-02-18T05:48:13;2.80;;;2.60;;
3712;SDS011;1872;51.406;6.856;2023-02-18T05:50:39;3.77;;;2.40;;
3712;SDS011;1872;51.406;6.856;2023-02-18T05:53:06;3.67;;;3.13;;
3712;SDS011;1872;51.406;6.856;2023-02-18T05:55:31;2.87;;;2.60;;
3712;SDS011;1872;51.406;6.856;2023-02-18T05:58:02;3.03;;;2.73;;
3712;SDS011;1872;51.406;6.856;2023-02-18T06:00:27;3.00;;;2.70;;
3712;SDS011;1872;51.406;6.856;2023-02-18T06:02:54;3.10;;;2.80;;
3712;SDS011;1872;51.406;6.856;2023-02-18T06:05:21;3.70;;;3.00;;
3712;SDS011;1872;51.406;6.856;2023-02-18T06:07:47;3.00;;;2.70;;
3712;SDS011;1872;51.406;6.856;2023-02-18T06:10:12;3.60;;;3.20;;
3712;SDS011;1872;51.406;6.856;2023-02-18T06:12:38;2.60;;;2.40;;
3712;SDS011;1872;51.406;6.856;2023-02-18T06:15:04;3.47;;;2.47;;
3712;SDS011;1872;51.406;6.856;2023-02-18T06:17:30;3.07;;;2.77;;
3712;SDS011;1872;51.406;6.856;2023-02-18T06:19:55;2.50;;;2.30;;
3712;SDS011;1872;51.406;6.856;2023-02-18T06:22:21;2.40;;;2.20;;
3712;SDS011;1872;51.406;6.856;2023-02-18T06:24:47;3.10;;;2.20;;
3712;SDS011;1872;51.406;6.856;2023-02-18T06:27:12;3.13;;;2.77;;
3712;SDS011;1872;51.406;6.856;2023-02-18T06:29:38;3.27;;;2.87;;
3712;SDS011;1872;51.406;6.856;2023-02-18T06:32:04;5.03;;;3.40;;
3712;SDS011;1872;51.406;6.856;2023-02-18T06:34:29;3.10;;;2.43;;
3712;SDS011;1872;51.406;6.856;2023-02-18T06:36:55;4.40;;;3.10;;
3712;SDS011;1872;51.406;6.856;2023-02-18T06:39:21;3.37;;;2.60;;
3712;SDS011;1872;51.406;6.856;2023-02-18T06:41:46;3.73;;;3.30;;
3712;SDS011;1872;51.406;6.856;2023-02-18T06:44:12;3.47;;;3.17;;
3712;SDS011;1872;51.406;6.856;2023-02-18T06:46:40;4.07;;;3.10;;
3712;SDS011;1872;51.406;6.856;2023-02-18T06:49:06;3.73;;;3.13;;
3712;SDS011;1872;51.406;6.856;2023-02-18T06:51:32;4.03;;;3.30;;
3712;SDS011;1872;51.406;6.856;2023-02-18T06:53:58;4.70;;;3.70;;
3712;SDS011;1872;51.406;6.856;2023-02-18T06:56:23;5.23;;;3.57;;
3712;SDS011;1872;51.406;6.856;2023-02-18T06:58:49;5.87;;;3.63;;
3712;SDS011;1872;51.406;6.856;2023-02-18T07:01:15;3.53;;;3.10;;
3712;SDS011;1872;51.406;6.856;2023-02-18T07:03:40;3.43;;;2.67;;
3712;SDS011;1872;51.406;6.856;2023-02-18T07:06:06;3.90;;;3.30;;
3712;SDS011;1872;51.406;6.856;2023-02-18T07:08:32;4.27;;;3.57;;
3712;SDS011;1872;51.406;6.856;2023-02-18T07:11:01;3.93;;;3.53;;
3712;SDS011;1872;51.406;6.856;2023-02-18T07:13:27;4.73;;;3.63;;
3712;SDS011;1872;51.406;6.856;2023-02-18T07:15:52;4.17;;;3.17;;
3712;SDS011;1872;51.406;6.856;2023-02-18T07:18:18;6.27;;;3.87;;
3712;SDS011;1872;51.406;6.856;2023-02-18T07:20:44;4.90;;;3.50;;
3712;SDS011;1872;51.406;6.856;2023-02-18T07:23:09;5.10;;;3.10;;
3712;SDS011;1872;51.406;6.856;2023-02-18T07:25:35;2.87;;;2.57;;
3712;SDS011;1872;51.406;6.856;2023-02-18T07:28:01;2.63;;;2.43;;
3712;SDS011;1872;51.406;6.856;2023-02-18T07:30:26;3.83;;;3.43;;
3712;SDS011;1872;51.406;6.856;2023-02-18T07:32:52;2.73;;;2.40;;
3712;SDS011;1872;51.406;6.856;2023-02-18T07:35:18;3.30;;;3.00;;
3712;SDS011;1872;51.406;6.856;2023-02-18T07:37:48;5.23;;;2.97;;
3712;SDS011;1872;51.406;6.856;2023-02-18T07:40:18;2.60;;;2.40;;
3712;SDS011;1872;51.406;6.856;2023-02-18T07:42:45;3.00;;;2.30;;
3712;SDS011;1872;51.406;6.856;2023-02-18T07:45:12;3.77;;;3.03;;
3712;SDS011;1872;51.406;6.856;2023-02-18T07:47:38;3.00;;;2.80;;
3712;SDS011;1872;51.406;6.856;2023-02-18T07:50:04;3.13;;;2.80;;
3712;SDS011;1872;51.406;6.856;2023-02-18T07:52:30;2.60;;;2.40;;
3712;SDS011;1872;51.406;6.856;2023-02-18T07:54:56;2.67;;;2.30;;
3712;SDS011;1872;51.406;6.856;2023-02-18T07:57:22;2.37;;;2.17;;
3712;SDS011;1872;51.406;6.856;2023-02-18T07:59:47;3.40;;;2.30;;
3712;SDS011;1872;51.406;6.856;2023-02-18T08:02:17;1.73;;;1.63;;
3712;SDS011;1872;51.406;6.856;2023-02-18T08:04:46;2.80;;;2.23;;
3712;SDS011;1872;51.406;6.856;2023-02-18T08:07:13;2.10;;;2.00;;
3712;SDS011;1872;51.406;6.856;2023-02-18T08:09:39;1.73;;;1.63;;
3712;SDS011;1872;51.406;6.856;2023-02-18T08:12:05;2.17;;;1.97;;
3712;SDS011;1872;51.406;6.856;2023-02-18T08:14:31;3.17;;;2.90;;
3712;SDS011;1872;51.406;6.856;2023-02-18T08:16:57;3.40;;;2.80;;
3712;SDS011;1872;51.406;6.856;2023-02-18T08:19:23;5.07;;;4.10;;
3712;SDS011;1872;51.406;6.856;2023-02-18T08:21:48;5.67;;;4.03;;
3712;SDS011;1872;51.406;6.856;2023-02-18T08:24:14;5.13;;;4.07;;
3712;SDS011;1872;51.406;6.856;2023-02-18T08:26:39;5.07;;;4.33;;
3712;SDS011;1872;51.406;6.856;2023-02-18T08:29:05;4.00;;;3.50;;
3712;SDS011;1872;51.406;6.856;2023-02-18T08:31:31;3.83;;;3.53;;
3712;SDS011;1872;51.406;6.856;2023-02-18T08:33:57;3.17;;;2.87;;
3712;SDS011;1872;51.406;6.856;2023-02-18T08:36:24;4.40;;;4.00;;
3712;SDS011;1872;51.406;6.856;2023-02-18T08:38:51;6.17;;;4.70;;
3712;SDS011;1872;51.406;6.856;2023-02-18T08:41:17;5.17;;;4.63;;
3712;SDS011;1872;51.406;6.856;2023-02-18T08:43:43;7.90;;;5.47;;
3712;SDS011;1872;51.406;6.856;2023-02-18T08:46:09;5.87;;;4.37;;
3712;SDS011;1872;51.406;6.856;2023-02-18T08:48:38;6.63;;;4.07;;
3712;SDS011;1872;51.406;6.856;2023-02-18T08:51:18;8.07;;;3.70;;
3712;SDS011;1872;51.406;6.856;2023-02-18T08:53:45;4.23;;;3.83;;
3712;SDS011;1872;51.406;6.856;2023-02-18T08:56:12;9.10;;;4.00;;
3712;SDS011;1872;51.406;6.856;2023-02-18T08:58:39;3.90;;;3.50;;
3712;SDS011;1872;51.406;6.856;2023-02-18T09:01:06;8.27;;;4.10;;
3712;SDS011;1872;51.406;6.856;2023-02-18T09:03:34;3.37;;;3.07;;
3712;SDS011;1872;51.406;6.856;2023-02-18T09:06:00;6.57;;;4.20;;
3712;SDS011;1872;51.406;6.856;2023-02-18T09:08:27;7.20;;;3.80;;
3712;SDS011;1872;51.406;6.856;2023-02-18T09:10:57;3.73;;;2.80;;
3712;SDS011;1872;51.406;6.856;2023-02-18T09:13:25;5.13;;;3.07;;
3712;SDS011;1872;51.406;6.856;2023-02-18T09:15:59;5.10;;;3.20;;
3712;SDS011;1872;51.406;6.856;2023-02-18T09:18:27;6.83;;;3.40;;
3712;SDS011;1872;51.406;6.856;2023-02-18T09:20:56;6.60;;;3.33;;
3712;SDS011;1872;51.406;6.856;2023-02-18T09:23:27;6.60;;;3.20;;
3712;SDS011;1872;51.406;6.856;2023-02-18T09:25:54;3.90;;;3.30;;
3712;SDS011;1872;51.406;6.856;2023-02-18T09:28:20;4.40;;;2.93;;
3712;SDS011;1872;51.406;6.856;2023-02-18T09:30:46;8.40;;;4.87;;
3712;SDS011;1872;51.406;6.856;2023-02-18T09:33:13;4.67;;;3.27;;
3712;SDS011;1872;51.406;6.856;2023-02-18T09:35:40;4.20;;;3.43;;
3712;SDS011;1872;51.406;6.856;2023-02-18T09:38:08;9.27;;;4.40;;
3712;SDS011;1872;51.406;6.856;2023-02-18T09:40:36;7.60;;;3.67;;
3712;SDS011;1872;51.406;6.856;2023-02-18T09:43:03;6.73;;;3.97;;
3712;SDS011;1872;51.406;6.856;2023-02-18T09:45:30;5.20;;;3.60;;
3712;SDS011;1872;51.406;6.856;2023-02-18T09:47:57;12.00;;;4.07;;
3712;SDS011;1872;51.406;6.856;2023-02-18T09:50:27;5.33;;;3.43;;
3712;SDS011;1872;51.406;6.856;2023-02-18T09:52:59;5.90;;;3.40;;
3712;SDS011;1872;51.406;6.856;2023-02-18T09:58:15;5.00;;;3.80;;
3712;SDS011;1872;51.406;6.856;2023-02-18T10:00:42;8.70;;;5.40;;
3712;SDS011;1872;51.406;6.856;2023-02-18T10:05:57;7.47;;;3.80;;
3712;SDS011;1872;51.406;6.856;2023-02-18T10:08:29;4.63;;;3.73;;
3712;SDS011;1872;51.406;6.856;2023-02-18T10:11:16;5.70;;;4.07;;
3712;SDS011;1872;51.406;6.856;2023-02-18T10:13:49;7.10;;;4.40;;
3712;SDS011;1872;51.406;6.856;2023-02-18T10:16:17;6.23;;;4.50;;
3712;SDS011;1872;51.406;6.856;2023-02-18T10:18:47;6.20;;;3.90;;
3712;SDS011;1872;51.406;6.856;2023-02-18T10:21:15;9.40;;;4.17;;
3712;SDS011;1872;51.406;6.856;2023-02-18T10:26:25;8.23;;;3.60;;
3712;SDS011;1872;51.406;6.856;2023-02-18T10:28:54;4.80;;;4.03;;
3712;SDS011;1872;51.406;6.856;2023-02-18T10:31:42;5.50;;;3.67;;
3712;SDS011;1872;51.406;6.856;2023-02-18T10:34:13;8.30;;;4.70;;
3712;SDS011;1872;51.406;6.856;2023-02-18T10:36:48;5.90;;;4.50;;
3712;SDS011;1872;51.406;6.856;2023-02-18T10:39:30;10.53;;;4.90;;
3712;SDS011;1872;51.406;6.856;2023-02-18T10:50:39;8.83;;;6.77;;
3712;SDS011;1872;51.406;6.856;2023-02-18T10:53:11;16.00;;;8.50;;
3712;SDS011;1872;51.406;6.856;2023-02-18T10:55:46;11.17;;;8.17;;
3712;SDS011;1872;51.406;6.856;2023-02-18T10:59:04;11.97;;;6.50;;
3712;SDS011;1872;51.406;6.856;2023-02-18T11:01:17;10.37;;;6.80;;
3712;SDS011;1872;51.406;6.856;2023-02-18T11:03:46;12.40;;;6.63;;
3712;SDS011;1872;51.406;6.856;2023-02-18T11:09:05;10.27;;;7.00;;
3712;SDS011;1872;51.406;6.856;2023-02-18T11:11:42;9.97;;;6.13;;
3712;SDS011;1872;51.406;6.856;2023-02-18T11:14:08;14.30;;;9.80;;
3712;SDS011;1872;51.406;6.856;2023-02-18T11:16:44;11.87;;;8.87;;
3712;SDS011;1872;51.406;6.856;2023-02-18T11:19:33;11.70;;;7.30;;
3712;SDS011;1872;51.406;6.856;2023-02-18T11:22:17;10.07;;;7.40;;
3712;SDS011;1872;51.406;6.856;2023-02-18T11:24:56;15.33;;;8.90;;
3712;SDS011;1872;51.406;6.856;2023-02-18T11:27:45;13.60;;;8.40;;
3712;SDS011;1872;51.406;6.856;2023-02-18T11:30:18;11.30;;;8.07;;
3712;SDS011;1872;51.406;6.856;2023-02-18T11:32:51;15.80;;;10.10;;
3712;SDS011;1872;51.406;6.856;2023-02-18T11:35:24;13.20;;;11.40;;
3712;SDS011;1872;51.406;6.856;2023-02-18T11:37:53;14.53;;;10.07;;
3712;SDS011;1872;51.406;6.856;2023-02-18T11:40:22;16.83;;;10.37;;
3712;SDS011;1872;51.406;6.856;2023-02-18T11:43:00;11.00;;;9.00;;
3712;SDS011;1872;51.406;6.856;2023-02-18T11:45:32;13.00;;;9.20;;
3712;SDS011;1872;51.406;6.856;2023-02-18T11:48:22;10.97;;;8.70;;
3712;SDS011;1872;51.406;6.856;2023-02-18T11:50:51;15.03;;;10.10;;
3712;SDS011;1872;51.406;6.856;2023-02-18T11:56:00;12.50;;;9.17;;
3712;SDS011;1872;51.406;6.856;2023-02-18T11:58:37;15.67;;;11.03;;
3712;SDS011;1872;51.406;6.856;2023-02-18T12:01:05;14.60;;;10.23;;
3712;SDS011;1872;51.406;6.856;2023-02-18T12:03:48;16.33;;;12.13;;
3712;SDS011;1872;51.406;6.856;2023-02-18T12:06:24;18.60;;;13.10;;
3712;SDS011;1872;51.406;6.856;2023-02-18T12:09:05;18.57;;;13.77;;
3712;SDS011;1872;51.406;6.856;2023-02-18T12:11:41;14.50;;;11.80;;
3712;SDS011;1872;51.406;6.856;2023-02-18T12:14:15;16.63;;;13.57;;
3712;SDS011;1872;51.406;6.856;2023-02-18T12:16:53;18.47;;;14.57;;
3712;SDS011;1872;51.406;6.856;2023-02-18T12:44:00;17.30;;;13.90;;
3712;SDS011;1872;51.406;6.856;2023-02-18T13:00:33;25.43;;;16.40;;
3712;SDS011;1872;51.406;6.856;2023-02-18T13:14:32;21.57;;;17.90;;
3712;SDS011;1872;51.406;6.856;2023-02-18T13:17:21;25.23;;;17.87;;
3712;SDS011;1872;51.406;6.856;2023-02-18T13:22:47;26.40;;;18.00;;
3712;SDS011;1872;51.406;6.856;2023-02-18T13:25:15;23.70;;;16.87;;
3712;SDS011;1872;51.406;6.856;2023-02-18T13:27:44;21.23;;;15.73;;
3712;SDS011;1872;51.406;6.856;2023-02-18T13:41:12;24.07;;;16.23;;
3712;SDS011;1872;51.406;6.856;2023-02-18T13:43:38;25.23;;;16.93;;
3712;SDS011;1872;51.406;6.856;2023-02-18T13:48:46;24.80;;;15.97;;
3712;SDS011;1872;51.406;6.856;2023-02-18T13:54:00;22.37;;;15.87;;
3712;SDS011;1872;51.406;6.856;2023-02-18T13:56:30;24.73;;;17.07;;
3712;SDS011;1872;51.406;6.856;2023-02-18T13:59:40;25.90;;;16.37;;
3712;SDS011;1872;51.406;6.856;2023-02-18T14:02:07;23.10;;;15.93;;
3712;SDS011;1872;51.406;6.856;2023-02-18T14:04:54;23.77;;;16.57;;
3712;SDS011;1872;51.406;6.856;2023-02-18T14:12:38;26.60;;;14.77;;
3712;SDS011;1872;51.406;6.856;2023-02-18T14:18:30;22.80;;;15.33;;
3712;SDS011;1872;51.406;6.856;2023-02-18T14:31:14;25.10;;;16.83;;
3712;SDS011;1872;51.406;6.856;2023-02-18T14:36:39;21.43;;;15.60;;
3712;SDS011;1872;51.406;6.856;2023-02-18T14:49:38;23.07;;;13.13;;
3712;SDS011;1872;51.406;6.856;2023-02-18T14:52:21;18.80;;;12.43;;
3712;SDS011;1872;51.406;6.856;2023-02-18T14:54:56;18.10;;;13.40;;
3712;SDS011;1872;51.406;6.856;2023-02-18T14:57:40;21.10;;;12.70;;
3712;SDS011;1872;51.406;6.856;2023-02-18T15:00:16;17.37;;;12.63;;
3712;SDS011;1872;51.406;6.856;2023-02-18T15:02:46;23.40;;;12.83;;
3712;SDS011;1872;51.406;6.856;2023-02-18T15:05:15;17.60;;;12.87;;
3712;SDS011;1872;51.406;6.856;2023-02-18T15:08:04;21.57;;;14.63;;
3712;SDS011;1872;51.406;6.856;2023-02-18T15:10:36;19.93;;;14.23;;
3712;SDS011;1872;51.406;6.856;2023-02-18T15:13:07;22.63;;;13.87;;
3712;SDS011;1872;51.406;6.856;2023-02-18T15:15:47;19.73;;;12.57;;
3712;SDS011;1872;51.406;6.856;2023-02-18T15:21:25;20.13;;;13.57;;
3712;SDS011;1872;51.406;6.856;2023-02-18T15:23:53;19.23;;;13.90;;
3712;SDS011;1872;51.406;6.856;2023-02-18T15:26:19;21.63;;;13.80;;
3712;SDS011;1872;51.406;6.856;2023-02-18T15:29:02;23.07;;;15.00;;
3712;SDS011;1872;51.406;6.856;2023-02-18T15:31:30;21.40;;;13.53;;
3712;SDS011;1872;51.406;6.856;2023-02-18T15:34:01;22.93;;;14.87;;
3712;SDS011;1872;51.406;6.856;2023-02-18T15:36:26;21.53;;;13.80;;
3712;SDS011;1872;51.406;6.856;2023-02-18T15:38:52;20.00;;;13.50;;
3712;SDS011;1872;51.406;6.856;2023-02-18T15:41:21;19.80;;;13.87;;
3712;SDS011;1872;51.406;6.856;2023-02-18T15:44:03;22.87;;;13.37;;
3712;SDS011;1872;51.406;6.856;2023-02-18T15:46:32;20.80;;;12.83;;
3712;SDS011;1872;51.406;6.856;2023-02-18T15:48:58;17.27;;;12.27;;
3712;SDS011;1872;51.406;6.856;2023-02-18T15:51:26;20.10;;;12.00;;
3712;SDS011;1872;51.406;6.856;2023-02-18T15:53:55;17.50;;;11.80;;
3712;SDS011;1872;51.406;6.856;2023-02-18T16:02:02;17.87;;;11.17;;
3712;SDS011;1872;51.406;6.856;2023-02-18T16:04:47;20.90;;;13.30;;
3712;SDS011;1872;51.406;6.856;2023-02-18T16:07:26;21.17;;;13.00;;
3712;SDS011;1872;51.406;6.856;2023-02-18T16:10:07;26.87;;;14.57;;
3712;SDS011;1872;51.406;6.856;2023-02-18T16:12:39;25.13;;;15.60;;
3712;SDS011;1872;51.406;6.856;2023-02-18T16:15:05;27.80;;;17.83;;
3712;SDS011;1872;51.406;6.856;2023-02-18T16:17:35;24.73;;;16.10;;
3712;SDS011;1872;51.406;6.856;2023-02-18T16:20:24;21.00;;;14.23;;
3712;SDS011;1872;51.406;6.856;2023-02-18T16:22:54;23.83;;;15.10;;
3712;SDS011;1872;51.406;6.856;2023-02-18T16:30:41;20.43;;;14.43;;
3712;SDS011;1872;51.406;6.856;2023-02-18T16:33:09;19.03;;;13.90;;
3712;SDS011;1872;51.406;6.856;2023-02-18T16:35:36;25.20;;;15.30;;
3712;SDS011;1872;51.406;6.856;2023-02-18T16:38:01;18.57;;;13.47;;
3712;SDS011;1872;51.406;6.856;2023-02-18T16:40:37;19.13;;;13.30;;
3712;SDS011;1872;51.406;6.856;2023-02-18T16:43:26;19.10;;;13.67;;
3712;SDS011;1872;51.406;6.856;2023-02-18T16:45:57;19.73;;;15.10;;
3712;SDS011;1872;51.406;6.856;2023-02-18T16:48:36;16.77;;;12.70;;
3712;SDS011;1872;51.406;6.856;2023-02-18T16:51:10;21.17;;;14.20;;
3712;SDS011;1872;51.406;6.856;2023-02-18T16:53:39;20.07;;;13.40;;
3712;SDS011;1872;51.406;6.856;2023-02-18T16:56:10;19.43;;;14.20;;
3712;SDS011;1872;51.406;6.856;2023-02-18T16:58:38;20.97;;;15.40;;
3712;SDS011;1872;51.406;6.856;2023-02-18T17:01:03;23.97;;;14.97;;
3712;SDS011;1872;51.406;6.856;2023-02-18T17:03:29;22.80;;;15.23;;
3712;SDS011;1872;51.406;6.856;2023-02-18T17:05:55;19.20;;;14.10;;
3712;SDS011;1872;51.406;6.856;2023-02-18T17:08:22;23.60;;;15.27;;
3712;SDS011;1872;51.406;6.856;2023-02-18T17:10:51;21.67;;;15.17;;
3712;SDS011;1872;51.406;6.856;2023-02-18T17:13:19;22.20;;;14.23;;
3712;SDS011;1872;51.406;6.856;2023-02-18T17:15:47;17.83;;;12.73;;
3712;SDS011;1872;51.406;6.856;2023-02-18T17:18:15;16.73;;;11.90;;
3712;SDS011;1872;51.406;6.856;2023-02-18T17:20:41;16.07;;;11.70;;
3712;SDS011;1872;51.406;6.856;2023-02-18T17:23:09;20.67;;;12.07;;
3712;SDS011;1872;51.406;6.856;2023-02-18T17:25:39;19.20;;;12.67;;
3712;SDS011;1872;51.406;6.856;2023-02-18T17:28:05;18.00;;;12.27;;
3712;SDS011;1872;51.406;6.856;2023-02-18T17:30:31;19.03;;;12.73;;
3712;SDS011;1872;51.406;6.856;2023-02-18T17:33:00;17.37;;;12.13;;
3712;SDS011;1872;51.406;6.856;2023-02-18T17:35:29;16.80;;;10.87;;
3712;SDS011;1872;51.406;6.856;2023-02-18T17:37:55;18.57;;;10.50;;
3712;SDS011;1872;51.406;6.856;2023-02-18T17:40:23;15.80;;;10.30;;
3712;SDS011;1872;51.406;6.856;2023-02-18T17:42:51;25.27;;;17.17;;
3712;SDS011;1872;51.406;6.856;2023-02-18T17:45:26;24.17;;;17.00;;
3712;SDS011;1872;51.406;6.856;2023-02-18T17:47:57;22.23;;;15.47;;
3712;SDS011;1872;51.406;6.856;2023-02-18T17:50:24;21.53;;;15.73;;
3712;SDS011;1872;51.406;6.856;2023-02-18T17:52:51;20.33;;;13.80;;
3712;SDS011;1872;51.406;6.856;2023-02-18T17:57:48;17.60;;;11.17;;
3712;SDS011;1872;51.406;6.856;2023-02-18T18:00:21;16.70;;;11.47;;
3712;SDS011;1872;51.406;6.856;2023-02-18T18:02:49;16.83;;;10.90;;
3712;SDS011;1872;51.406;6.856;2023-02-18T18:05:20;16.00;;;10.23;;
3712;SDS011;1872;51.406;6.856;2023-02-18T18:07:46;14.60;;;10.23;;
3712;SDS011;1872;51.406;6.856;2023-02-18T18:10:12;12.10;;;9.07;;
3712;SDS011;1872;51.406;6.856;2023-02-18T18:12:38;11.47;;;8.80;;
3712;SDS011;1872;51.406;6.856;2023-02-18T18:15:38;15.60;;;11.57;;